createdAt,value
2023-03-31T00:00:23.033Z,28.83
2023-03-31T00:01:43.352Z,37.45
2023-03-31T00:03:03.968Z,35.42
2023-03-31T00:04:27.428Z,33.63
2023-03-31T00:05:48.016Z,26.85
2023-03-31T00:07:09.887Z,29.37
2023-03-31T00:08:31.794Z,32.97
2023-03-31T00:09:52.267Z,26.40
2023-03-31T00:11:13.061Z,28.50
2023-03-31T00:12:33.958Z,33.95
2023-03-31T00:13:57.232Z,32.88
2023-03-31T00:15:17.462Z,30.83
2023-03-31T00:16:39.158Z,36.85
2023-03-31T00:17:59.795Z,35.63
2023-03-31T00:19:20.405Z,31.92
2023-03-31T00:20:40.610Z,32.70
2023-03-31T00:22:01.218Z,38.83
2023-03-31T00:23:25.360Z,27.65
2023-03-31T00:24:46.085Z,33.05
2023-03-31T00:26:06.613Z,38.13
2023-03-31T00:27:27.134Z,34.07
2023-03-31T00:28:47.450Z,28.27
2023-03-31T00:30:08.969Z,34.08
2023-03-31T00:31:29.988Z,35.45
2023-03-31T00:34:11.366Z,26.35
2023-03-31T00:35:31.825Z,28.45
2023-03-31T00:36:52.298Z,24.40
2023-03-31T00:38:12.858Z,36.30
2023-03-31T00:39:35.038Z,36.97
2023-03-31T00:40:55.996Z,26.42
2023-03-31T00:42:16.395Z,27.35
2023-03-31T00:43:38.396Z,25.63
2023-03-31T00:45:27.245Z,27.00
2023-03-31T00:46:52.646Z,33.95
2023-03-31T00:48:16.907Z,26.80
2023-03-31T00:49:38.910Z,23.40
2023-03-31T00:50:59.931Z,25.05
2023-03-31T00:52:23.432Z,31.55
2023-03-31T00:53:44.319Z,25.77
2023-03-31T00:55:09.986Z,30.40
2023-03-31T00:56:33.585Z,29.40
2023-03-31T00:57:54.564Z,23.55
2023-03-31T00:59:15.238Z,24.77
2023-03-31T01:00:35.591Z,28.63
2023-03-31T01:01:56.582Z,27.55
2023-03-31T01:03:16.942Z,23.60
2023-03-31T01:04:39.934Z,28.40
2023-03-31T01:06:02.297Z,29.17
2023-03-31T01:07:25.257Z,20.52
2023-03-31T01:08:46.731Z,27.75
2023-03-31T01:10:10.494Z,24.85
2023-03-31T01:11:31.217Z,27.73
2023-03-31T01:12:54.465Z,21.33
2023-03-31T01:14:15.130Z,28.75
2023-03-31T01:15:35.905Z,24.35
2023-03-31T01:16:56.415Z,32.92
2023-03-31T01:18:17.702Z,34.65
2023-03-31T01:19:56.912Z,35.58
2023-03-31T01:22:05.369Z,30.15
2023-03-31T01:23:57.121Z,30.33
2023-03-31T01:25:57.695Z,22.38
2023-03-31T01:27:47.833Z,28.17
2023-03-31T01:29:18.026Z,26.83
2023-03-31T01:31:04.882Z,23.80
2023-03-31T01:32:50.532Z,25.75
2023-03-31T01:34:31.306Z,26.00
2023-03-31T01:36:22.918Z,31.05
2023-03-31T01:38:12.612Z,22.33
2023-03-31T01:40:00.802Z,37.72
2023-03-31T01:41:35.878Z,26.48
2023-03-31T01:42:59.218Z,26.95
2023-03-31T01:44:23.968Z,29.27
2023-03-31T01:45:54.983Z,27.40
2023-03-31T01:47:18.800Z,32.25
2023-03-31T01:48:44.652Z,34.78
2023-03-31T01:50:07.035Z,34.25
2023-03-31T01:51:33.642Z,33.97
2023-03-31T01:52:58.970Z,32.13
2023-03-31T01:54:22.601Z,28.77
2023-03-31T01:55:47.677Z,44.22
2023-03-31T01:57:13.013Z,43.88
2023-03-31T01:58:36.284Z,37.63
2023-03-31T02:00:01.078Z,34.15
2023-03-31T02:01:26.605Z,31.17
2023-03-31T02:02:49.979Z,37.70
2023-03-31T02:04:14.969Z,44.05
2023-03-31T02:05:37.723Z,32.95
2023-03-31T02:07:03.771Z,42.83
2023-03-31T02:08:27.831Z,40.88
2023-03-31T02:09:50.197Z,40.95
2023-03-31T02:11:12.442Z,39.25
2023-03-31T02:12:33.484Z,34.55
2023-03-31T02:13:57.792Z,30.60
2023-03-31T02:15:22.346Z,43.35
2023-03-31T02:16:43.310Z,40.20
2023-03-31T02:18:06.973Z,35.08
2023-03-31T02:19:30.695Z,40.42
2023-03-31T02:20:51.712Z,41.58
2023-03-31T02:22:13.302Z,30.20
2023-03-31T02:23:34.925Z,27.35
2023-03-31T02:24:56.455Z,39.50
2023-03-31T02:26:21.991Z,32.53
2023-03-31T02:27:43.534Z,32.63
2023-03-31T02:29:04.591Z,35.30
2023-03-31T02:30:30.779Z,27.95
2023-03-31T02:31:58.370Z,28.73
2023-03-31T02:33:18.954Z,31.70
2023-03-31T02:34:39.947Z,33.42
2023-03-31T02:36:00.953Z,32.22
2023-03-31T02:37:21.892Z,30.73
2023-03-31T02:38:45.045Z,27.52
2023-03-31T02:40:07.922Z,31.23
2023-03-31T02:41:29.965Z,33.30
2023-03-31T02:42:50.433Z,31.67
2023-03-31T02:44:11.397Z,25.58
2023-03-31T02:45:45.633Z,33.42
2023-03-31T02:47:08.351Z,31.58
2023-03-31T02:48:31.989Z,31.42
2023-03-31T02:49:55.349Z,24.60
2023-03-31T02:51:47.813Z,40.00
2023-03-31T02:54:43.520Z,33.72
2023-03-31T02:56:15.121Z,34.42
2023-03-31T02:57:59.574Z,30.80
2023-03-31T02:59:29.898Z,41.08
2023-03-31T03:01:02.676Z,26.25
2023-03-31T03:02:31.451Z,29.15
2023-03-31T03:04:02.348Z,25.80
2023-03-31T03:05:30.604Z,18.23
2023-03-31T03:06:55.609Z,21.77
2023-03-31T03:08:21.647Z,24.33
2023-03-31T03:09:46.804Z,22.23
2023-03-31T03:11:11.300Z,15.82
2023-03-31T03:12:36.425Z,23.75
2023-03-31T03:14:05.187Z,17.75
2023-03-31T03:15:28.414Z,19.58
2023-03-31T03:16:57.293Z,19.63
2023-03-31T03:18:18.691Z,14.07
2023-03-31T03:19:38.894Z,14.32
2023-03-31T03:20:59.370Z,14.82
2023-03-31T03:22:19.816Z,13.27
2023-03-31T03:23:40.463Z,12.90
2023-03-31T03:25:01.166Z,12.30
2023-03-31T03:26:22.101Z,9.80
2023-03-31T03:27:42.554Z,16.75
2023-03-31T03:29:04.376Z,20.85
2023-03-31T03:30:25.236Z,18.77
2023-03-31T03:31:45.591Z,22.48
2023-03-31T03:33:05.947Z,15.80
2023-03-31T03:34:26.533Z,20.20
2023-03-31T03:35:47.081Z,18.60
2023-03-31T03:37:07.660Z,14.50
2023-03-31T03:38:28.200Z,16.98
2023-03-31T03:39:48.937Z,20.60
2023-03-31T03:41:10.603Z,15.80
2023-03-31T03:42:31.351Z,22.15
2023-03-31T03:43:51.986Z,24.40
2023-03-31T03:45:13.745Z,25.85
2023-03-31T03:46:34.516Z,22.35
2023-03-31T03:47:58.385Z,27.83
2023-03-31T03:49:19.148Z,24.48
2023-03-31T03:50:39.447Z,30.65
2023-03-31T03:51:59.931Z,22.77
2023-03-31T03:53:21.074Z,21.48
2023-03-31T03:54:42.390Z,27.35
2023-03-31T03:56:03.197Z,37.83
2023-03-31T03:57:23.916Z,30.63
2023-03-31T03:58:44.290Z,26.08
2023-03-31T04:00:06.342Z,21.23
2023-03-31T04:01:28.207Z,34.47
2023-03-31T04:02:48.952Z,32.58
2023-03-31T04:04:09.237Z,31.73
2023-03-31T04:05:29.788Z,26.90
2023-03-31T04:06:50.689Z,36.97
2023-03-31T04:08:11.104Z,28.38
2023-03-31T04:09:32.018Z,34.58
2023-03-31T04:10:52.700Z,32.17
2023-03-31T04:12:13.230Z,31.93
2023-03-31T04:13:33.574Z,40.22
2023-03-31T04:14:53.966Z,32.20
2023-03-31T04:16:14.721Z,26.90
2023-03-31T04:17:36.597Z,28.15
2023-03-31T04:18:57.248Z,35.92
2023-03-31T04:20:18.206Z,35.30
2023-03-31T04:21:39.165Z,39.53
2023-03-31T04:23:00.323Z,32.95
2023-03-31T04:24:21.607Z,31.00
2023-03-31T04:27:03.094Z,38.40
2023-03-31T04:28:23.758Z,36.55
2023-03-31T04:29:44.660Z,29.65
2023-03-31T04:31:05.586Z,33.63
2023-03-31T04:32:26.184Z,36.25
2023-03-31T04:33:48.183Z,30.80
2023-03-31T04:36:29.228Z,28.42
2023-03-31T04:37:50.736Z,31.20
2023-03-31T04:39:11.225Z,25.77
2023-03-31T04:40:31.936Z,28.88
2023-03-31T04:41:52.951Z,31.73
2023-03-31T04:43:13.571Z,36.85
2023-03-31T04:44:34.175Z,32.08
2023-03-31T04:45:57.596Z,27.17
2023-03-31T04:47:18.189Z,24.00
2023-03-31T04:48:38.992Z,26.70
2023-03-31T04:50:00.972Z,25.95
2023-03-31T04:51:23.719Z,32.05
2023-03-31T04:52:45.276Z,22.90
2023-03-31T04:55:26.200Z,32.42
2023-03-31T04:56:46.470Z,28.40
2023-03-31T04:58:06.706Z,29.75
2023-03-31T04:59:27.171Z,26.33
2023-03-31T05:00:48.079Z,26.90
2023-03-31T05:02:09.117Z,31.60
2023-03-31T05:03:29.856Z,19.73
2023-03-31T05:04:50.949Z,24.23
2023-03-31T05:06:12.656Z,22.33
2023-03-31T05:07:33.148Z,20.95
2023-03-31T05:08:53.655Z,22.27
2023-03-31T05:10:13.990Z,24.15
2023-03-31T05:11:34.612Z,21.25
2023-03-31T05:12:55.271Z,19.30
2023-03-31T05:14:15.716Z,23.52
2023-03-31T05:15:38.546Z,21.15
2023-03-31T05:16:59.238Z,18.20
2023-03-31T05:18:20.026Z,22.08
2023-03-31T05:19:40.570Z,21.02
2023-03-31T05:21:09.731Z,18.50
2023-03-31T05:22:34.744Z,16.27
2023-03-31T05:23:55.027Z,19.88
2023-03-31T05:25:15.610Z,14.40
2023-03-31T05:26:36.144Z,11.63
2023-03-31T05:27:56.565Z,13.00
2023-03-31T05:29:16.997Z,16.88
2023-03-31T05:30:37.657Z,17.27
2023-03-31T05:31:58.175Z,13.00
2023-03-31T05:33:18.907Z,11.98
2023-03-31T05:34:39.581Z,14.77
2023-03-31T05:36:00.486Z,21.67
2023-03-31T05:37:21.252Z,13.77
2023-03-31T05:38:43.389Z,7.40
2023-03-31T05:40:04.567Z,14.95
2023-03-31T05:41:25.328Z,11.57
2023-03-31T05:42:46.022Z,10.85
2023-03-31T05:44:06.673Z,13.93
2023-03-31T05:45:27.314Z,9.00
2023-03-31T05:46:48.078Z,14.73
2023-03-31T05:48:08.362Z,12.73
2023-03-31T05:49:28.799Z,12.07
2023-03-31T05:50:49.388Z,11.80
2023-03-31T05:52:12.000Z,11.55
2023-03-31T05:53:32.568Z,11.93
2023-03-31T05:54:54.531Z,9.30
2023-03-31T05:56:14.993Z,11.93
2023-03-31T05:57:35.453Z,8.73
2023-03-31T05:58:55.750Z,9.45
2023-03-31T06:00:16.625Z,9.15
2023-03-31T06:01:37.392Z,10.82
2023-03-31T06:02:57.915Z,10.45
2023-03-31T06:04:18.416Z,11.18
2023-03-31T06:05:39.025Z,9.98
2023-03-31T06:06:59.786Z,8.00
2023-03-31T06:08:20.543Z,6.60
2023-03-31T06:09:40.918Z,9.30
2023-03-31T06:11:04.949Z,15.38
2023-03-31T06:12:25.819Z,7.50
2023-03-31T06:13:46.498Z,11.55
2023-03-31T06:15:08.144Z,15.80
2023-03-31T06:16:28.464Z,13.57
2023-03-31T06:17:49.036Z,9.10
2023-03-31T06:19:09.694Z,14.60
2023-03-31T06:20:30.246Z,16.48
2023-03-31T06:21:51.473Z,11.50
2023-03-31T06:23:12.081Z,17.98
2023-03-31T06:24:32.619Z,8.60
2023-03-31T06:25:53.792Z,17.05
2023-03-31T06:27:15.488Z,13.98
